Chester, United Kingdom
Current Conditions -  °F | °C
As of 8:50 PM on Wednesday 22 Oct 2014 (Local Time) from EGNR Reporting Station
Few Clouds Few Clouds  
Wind Chill: 55°   Ceiling: Unl
Heat Index: 55°   Visibility: 6mi
Dew Point: 48°   Wind: 7mph
Humidity: 77%   Direction: 140°SE
Pressure: 30.12"   Gusts: NA
Location:  53.19°N, 2.89°W
Report Text: EGNR 221950Z 14006KT 9999 FEW020 13/09 Q1020
Loading
Personal Weather Stations






























Interactive Weather Map
Tropical Storm Tracking
New forecast layout! Learn more

10-Day Weather Forecast

Advertisements
Track Severe Weather on mobile